createdAt,value
2023-02-14T00:01:13.258Z,16.20
2023-02-14T00:03:40.560Z,19.83
2023-02-14T00:06:08.867Z,15.88
2023-02-14T00:08:36.728Z,19.60
2023-02-14T00:11:05.324Z,16.65
2023-02-14T00:13:32.580Z,19.85
2023-02-14T00:15:59.480Z,19.88
2023-02-14T00:18:46.712Z,16.05
2023-02-14T00:21:13.520Z,15.95
2023-02-14T00:23:40.675Z,17.70
2023-02-14T00:26:14.207Z,23.23
2023-02-14T00:31:08.238Z,18.63
2023-02-14T00:33:35.561Z,22.45
2023-02-14T00:36:04.218Z,16.90
2023-02-14T00:38:31.280Z,18.67
2023-02-14T00:40:58.269Z,21.17
2023-02-14T00:43:25.629Z,18.58
2023-02-14T00:45:52.419Z,18.50
2023-02-14T00:48:19.514Z,19.08
2023-02-14T00:50:46.402Z,17.67
2023-02-14T00:53:14.060Z,16.52
2023-02-14T00:55:40.904Z,19.38
2023-02-14T00:58:07.963Z,16.67
2023-02-14T01:00:34.838Z,16.90
2023-02-14T01:03:01.954Z,17.45
2023-02-14T01:05:28.737Z,20.08
2023-02-14T01:07:58.673Z,19.50
2023-02-14T01:10:25.495Z,18.55
2023-02-14T01:12:52.621Z,21.45
2023-02-14T01:15:19.492Z,18.83
2023-02-14T01:17:46.554Z,20.45
2023-02-14T01:20:14.684Z,23.83
2023-02-14T01:22:44.908Z,22.38
2023-02-14T01:25:11.725Z,17.65
2023-02-14T01:27:38.983Z,23.15
2023-02-14T01:30:06.430Z,19.55
2023-02-14T01:32:34.523Z,16.33
2023-02-14T01:35:01.763Z,20.90
2023-02-14T01:37:30.293Z,21.92
2023-02-14T01:39:57.166Z,20.48
2023-02-14T01:42:24.239Z,22.17
2023-02-14T01:45:02.993Z,18.08
2023-02-14T01:47:34.796Z,19.10
2023-02-14T01:50:09.042Z,20.50
2023-02-14T01:52:51.040Z,18.58
2023-02-14T01:55:22.349Z,26.48
2023-02-14T01:58:06.633Z,20.67
2023-02-14T02:03:20.778Z,23.77
2023-02-14T02:05:50.265Z,18.88
2023-02-14T02:08:17.644Z,18.95
2023-02-14T02:10:44.427Z,16.45
2023-02-14T02:13:18.488Z,22.95
2023-02-14T02:18:41.993Z,15.52
2023-02-14T02:21:26.053Z,21.42
2023-02-14T02:24:21.985Z,23.05
2023-02-14T02:26:54.609Z,22.00
2023-02-14T02:29:58.633Z,18.33
2023-02-14T02:33:07.033Z,18.50
2023-02-14T02:35:53.774Z,19.10
2023-02-14T02:38:39.298Z,22.15
2023-02-14T02:41:15.285Z,17.15
2023-02-14T02:43:53.953Z,23.25
2023-02-14T02:46:49.899Z,19.95
2023-02-14T02:49:50.620Z,21.17
2023-02-14T02:52:46.133Z,18.42
2023-02-14T02:55:20.083Z,17.02
2023-02-14T02:57:51.118Z,18.20
2023-02-14T03:00:20.936Z,21.60
2023-02-14T03:03:11.070Z,20.52
2023-02-14T03:05:38.449Z,22.55
2023-02-14T03:08:06.279Z,20.70
2023-02-14T03:10:37.817Z,17.00
2023-02-14T03:13:36.876Z,21.58
2023-02-14T03:16:31.593Z,17.98
2023-02-14T03:19:17.938Z,18.58
2023-02-14T03:22:34.530Z,21.20
2023-02-14T03:25:16.884Z,20.02
2023-02-14T03:28:10.054Z,20.02
2023-02-14T03:30:53.279Z,20.37
2023-02-14T03:33:23.496Z,18.65
2023-02-14T03:36:03.268Z,17.83
2023-02-14T03:38:55.084Z,16.83
2023-02-14T03:41:28.048Z,19.13
2023-02-14T03:43:59.323Z,19.50
2023-02-14T03:46:33.164Z,19.55
2023-02-14T03:49:05.417Z,21.17
2023-02-14T03:51:34.693Z,16.40
2023-02-14T03:54:04.687Z,22.88
2023-02-14T03:56:41.001Z,24.05
2023-02-14T03:59:16.621Z,19.23
2023-02-14T04:01:55.969Z,20.17
2023-02-14T04:04:27.130Z,18.05
2023-02-14T04:06:54.837Z,21.20
2023-02-14T04:09:21.626Z,19.17
2023-02-14T04:11:50.526Z,15.38
2023-02-14T04:14:17.910Z,22.40
2023-02-14T04:17:03.787Z,27.13
2023-02-14T04:19:30.625Z,20.98
2023-02-14T04:21:57.792Z,16.02
2023-02-14T04:24:24.588Z,19.33
2023-02-14T04:27:10.155Z,19.70
2023-02-14T04:29:38.837Z,21.20
2023-02-14T04:32:13.055Z,24.42
2023-02-14T04:34:40.101Z,17.63
2023-02-14T04:37:08.153Z,21.27
2023-02-14T04:39:35.608Z,21.15
2023-02-14T04:42:03.823Z,19.05
2023-02-14T04:44:30.965Z,18.85
2023-02-14T04:46:57.994Z,18.83
2023-02-14T04:49:24.797Z,21.65
2023-02-14T04:51:51.861Z,18.30
2023-02-14T04:54:18.741Z,21.20
2023-02-14T04:56:45.790Z,19.80
2023-02-14T04:59:12.584Z,17.40
2023-02-14T05:01:39.676Z,22.88
2023-02-14T05:04:06.666Z,21.02
2023-02-14T05:06:33.973Z,20.70
2023-02-14T05:09:01.868Z,21.25
2023-02-14T05:11:29.463Z,21.05
2023-02-14T05:13:56.521Z,25.08
2023-02-14T05:16:24.402Z,20.17
2023-02-14T05:18:51.377Z,18.90
2023-02-14T05:21:18.428Z,20.20
2023-02-14T05:23:45.326Z,15.98
2023-02-14T05:26:12.404Z,23.45
2023-02-14T05:28:41.092Z,21.90
2023-02-14T05:31:09.768Z,13.85
2023-02-14T05:33:36.695Z,20.38
2023-02-14T05:36:04.295Z,15.65
2023-02-14T05:38:31.313Z,23.15
2023-02-14T05:40:58.717Z,21.65
2023-02-14T05:43:26.429Z,23.88
2023-02-14T05:45:54.605Z,26.52
2023-02-14T05:48:21.715Z,22.10
2023-02-14T05:50:48.822Z,23.38
2023-02-14T05:53:15.821Z,21.23
2023-02-14T05:55:42.872Z,21.02
2023-02-14T05:58:09.793Z,23.33
2023-02-14T06:00:38.862Z,24.23
2023-02-14T06:03:06.779Z,23.63
2023-02-14T06:05:33.926Z,22.80
2023-02-14T06:08:01.557Z,25.15
2023-02-14T06:10:32.040Z,21.90
2023-02-14T06:12:58.997Z,23.25
2023-02-14T06:15:26.601Z,18.20
2023-02-14T06:17:57.720Z,20.45
2023-02-14T06:20:25.257Z,25.92
2023-02-14T06:22:52.680Z,25.33
2023-02-14T06:25:21.130Z,21.75
2023-02-14T06:27:49.331Z,19.73
2023-02-14T06:30:17.621Z,24.73
2023-02-14T06:32:44.956Z,24.45
2023-02-14T06:35:13.741Z,23.83
2023-02-14T06:37:42.125Z,24.35
2023-02-14T06:40:10.398Z,26.15
2023-02-14T06:42:37.658Z,31.40
2023-02-14T06:45:06.538Z,30.90
2023-02-14T06:47:35.020Z,30.52
2023-02-14T06:50:05.103Z,25.50
2023-02-14T06:52:34.730Z,34.78
2023-02-14T06:55:01.864Z,25.73
2023-02-14T06:57:28.667Z,32.92
2023-02-14T06:59:55.787Z,27.77
2023-02-14T07:02:24.869Z,31.13
2023-02-14T07:04:52.983Z,27.63
2023-02-14T07:07:19.872Z,31.65
2023-02-14T07:09:46.964Z,30.42
2023-02-14T07:12:13.915Z,35.17
2023-02-14T07:14:41.063Z,33.45
2023-02-14T07:17:07.956Z,29.65
2023-02-14T07:19:35.459Z,31.48
2023-02-14T07:22:02.526Z,33.42
2023-02-14T07:24:29.681Z,28.35
2023-02-14T07:26:56.501Z,31.58
2023-02-14T07:29:23.594Z,27.48
2023-02-14T07:31:50.504Z,32.78
2023-02-14T07:34:17.601Z,26.88
2023-02-14T07:36:44.495Z,22.83
2023-02-14T07:39:11.735Z,28.60
2023-02-14T07:41:38.591Z,26.90
2023-02-14T07:44:05.646Z,22.90
2023-02-14T07:46:32.531Z,25.38
2023-02-14T07:48:59.643Z,27.50
2023-02-14T07:51:26.457Z,27.50
2023-02-14T07:53:53.514Z,31.17
2023-02-14T07:56:20.538Z,32.22
2023-02-14T07:58:49.784Z,26.58
2023-02-14T08:01:17.178Z,26.75
2023-02-14T08:03:49.576Z,28.52
2023-02-14T08:06:17.627Z,28.17
2023-02-14T08:08:45.220Z,32.47
2023-02-14T08:11:12.492Z,29.08
2023-02-14T08:13:39.743Z,29.55
2023-02-14T08:16:07.565Z,28.38
2023-02-14T08:18:38.586Z,26.55
2023-02-14T08:21:07.980Z,26.60
2023-02-14T08:23:35.887Z,23.52
2023-02-14T08:26:03.729Z,25.85
2023-02-14T08:28:33.018Z,28.02
2023-02-14T08:31:00.400Z,27.80
2023-02-14T08:33:28.108Z,23.83
2023-02-14T08:35:54.932Z,26.25
2023-02-14T08:38:22.135Z,21.38
2023-02-14T08:40:48.880Z,24.05
2023-02-14T08:43:15.996Z,23.85
2023-02-14T08:45:43.079Z,19.25
2023-02-14T08:48:12.985Z,19.17
2023-02-14T08:50:40.625Z,23.80
2023-02-14T08:53:12.741Z,21.77
2023-02-14T08:55:40.416Z,21.15
2023-02-14T08:58:08.500Z,20.10
2023-02-14T09:00:35.338Z,21.45
2023-02-14T09:03:02.805Z,22.90
2023-02-14T09:05:29.637Z,19.52
2023-02-14T09:07:57.293Z,22.40
2023-02-14T09:10:25.480Z,21.17
2023-02-14T09:12:53.227Z,20.95
2023-02-14T09:15:20.215Z,21.83
2023-02-14T09:17:47.686Z,26.08
2023-02-14T09:20:15.938Z,19.92
2023-02-14T09:22:43.608Z,20.25
2023-02-14T09:25:11.181Z,23.15
2023-02-14T09:27:38.471Z,19.50
2023-02-14T09:30:10.231Z,18.42
2023-02-14T09:32:37.366Z,16.95
2023-02-14T09:35:04.282Z,21.85
2023-02-14T09:37:31.308Z,22.00
2023-02-14T09:39:58.446Z,20.65
2023-02-14T09:42:56.455Z,16.50
2023-02-14T09:45:29.516Z,17.48
2023-02-14T09:48:17.494Z,18.85
2023-02-14T09:50:54.924Z,18.77
2023-02-14T09:53:28.914Z,20.30
2023-02-14T09:56:01.318Z,18.90
2023-02-14T09:58:34.388Z,17.02
2023-02-14T10:01:27.394Z,23.13
2023-02-14T10:03:54.479Z,21.55
2023-02-14T10:06:57.104Z,23.08
2023-02-14T10:09:43.992Z,23.08
2023-02-14T10:12:30.930Z,24.60
2023-02-14T10:15:07.816Z,21.10
2023-02-14T10:17:52.272Z,24.75
2023-02-14T10:20:47.784Z,19.85
2023-02-14T10:23:22.520Z,20.65
2023-02-14T10:25:54.452Z,22.42
2023-02-14T10:28:30.942Z,20.65
2023-02-14T10:31:21.355Z,17.35
2023-02-14T10:33:57.690Z,19.45
2023-02-14T10:36:48.737Z,18.20
2023-02-14T10:39:50.499Z,19.08
2023-02-14T10:42:31.477Z,17.20
2023-02-14T10:45:25.810Z,15.90
2023-02-14T10:48:00.884Z,17.13
2023-02-14T10:50:36.420Z,17.10
2023-02-14T10:53:29.135Z,14.65
2023-02-14T10:56:03.787Z,14.45
2023-02-14T10:58:36.685Z,15.20
2023-02-14T11:01:15.178Z,12.38
2023-02-14T11:03:54.237Z,14.52
2023-02-14T11:06:23.964Z,12.02
2023-02-14T11:08:51.090Z,11.98
2023-02-14T11:11:26.620Z,14.65
2023-02-14T11:13:53.749Z,11.07
2023-02-14T11:16:32.927Z,14.52
2023-02-14T11:19:49.166Z,14.18
2023-02-14T11:22:29.964Z,11.75
2023-02-14T11:25:18.546Z,10.80
2023-02-14T11:27:50.023Z,12.32
2023-02-14T11:30:41.510Z,13.23
2023-02-14T11:33:38.807Z,12.57
2023-02-14T11:36:12.177Z,10.75
2023-02-14T11:38:41.172Z,11.63
2023-02-14T11:41:13.283Z,10.32
2023-02-14T11:43:42.806Z,10.40
2023-02-14T11:46:27.750Z,8.95
2023-02-14T11:48:56.457Z,9.65
2023-02-14T11:51:33.606Z,9.73
2023-02-14T11:54:05.004Z,10.80
2023-02-14T11:56:49.903Z,13.80
2023-02-14T11:59:41.498Z,13.38
2023-02-14T12:02:40.801Z,12.98
2023-02-14T12:05:29.333Z,13.18
2023-02-14T12:08:03.423Z,14.55
2023-02-14T12:12:58.622Z,12.25
2023-02-14T12:15:42.568Z,11.25
2023-02-14T12:18:18.578Z,12.40
2023-02-14T12:21:16.170Z,14.25
2023-02-14T12:24:08.070Z,11.20
2023-02-14T12:26:50.739Z,11.00
2023-02-14T12:29:41.717Z,13.52
2023-02-14T12:32:29.595Z,9.50
2023-02-14T12:35:22.518Z,14.10
2023-02-14T12:38:07.773Z,10.75
2023-02-14T12:40:37.681Z,10.57
2023-02-14T12:43:15.965Z,12.20
2023-02-14T12:45:54.143Z,11.32
2023-02-14T12:48:26.542Z,11.23
2023-02-14T12:51:10.760Z,11.57
2023-02-14T12:54:09.525Z,11.55
2023-02-14T12:56:47.707Z,11.25
2023-02-14T12:59:14.415Z,10.60
2023-02-14T13:01:59.521Z,11.60
2023-02-14T13:04:47.781Z,12.88
2023-02-14T13:07:46.004Z,12.13
2023-02-14T13:10:44.896Z,11.18
2023-02-14T13:13:20.979Z,10.63
2023-02-14T13:15:55.609Z,14.40
2023-02-14T13:18:38.274Z,13.95
2023-02-14T13:21:08.746Z,12.35
2023-02-14T13:23:42.146Z,12.55
2023-02-14T13:26:20.385Z,12.50
2023-02-14T13:28:58.518Z,11.80
2023-02-14T13:31:25.892Z,9.98
2023-02-14T13:34:21.992Z,12.73
2023-02-14T13:36:49.513Z,13.32
2023-02-14T13:39:28.730Z,12.18
2023-02-14T13:41:55.636Z,14.98
2023-02-14T13:44:42.746Z,14.15
2023-02-14T13:47:35.597Z,12.73
2023-02-14T13:50:05.408Z,14.45
2023-02-14T13:52:58.247Z,14.38
2023-02-14T13:55:32.501Z,9.55
2023-02-14T13:58:11.330Z,11.60
2023-02-14T14:00:40.792Z,17.60
2023-02-14T14:03:15.039Z,10.88
2023-02-14T14:05:44.848Z,10.82
2023-02-14T14:08:38.912Z,13.13
2023-02-14T14:13:40.517Z,11.18
2023-02-14T14:16:26.671Z,11.07
2023-02-14T14:19:17.715Z,10.32
2023-02-14T14:22:03.184Z,10.63
2023-02-14T14:24:31.060Z,10.43
2023-02-14T14:27:06.324Z,10.15
2023-02-14T14:29:43.595Z,11.32
2023-02-14T14:32:26.346Z,10.45
2023-02-14T14:34:58.569Z,8.55
2023-02-14T14:37:34.554Z,11.20
2023-02-14T14:40:04.801Z,11.45
2023-02-14T14:42:40.031Z,11.80
2023-02-14T14:45:28.747Z,11.30
2023-02-14T14:47:58.029Z,12.00
2023-02-14T14:50:31.008Z,11.35
2023-02-14T14:53:18.688Z,13.23
2023-02-14T14:55:52.018Z,12.88
2023-02-14T14:58:33.445Z,12.90
2023-02-14T15:01:00.618Z,16.48
2023-02-14T15:03:29.293Z,15.00
2023-02-14T15:06:07.834Z,16.75
2023-02-14T15:08:38.006Z,13.27
2023-02-14T15:11:10.990Z,12.40
2023-02-14T15:13:50.118Z,15.52
2023-02-14T15:16:34.989Z,17.95
2023-02-14T15:19:12.795Z,23.58
2023-02-14T15:21:44.810Z,21.80
2023-02-14T15:24:15.907Z,15.63
2023-02-14T15:26:45.686Z,21.20
2023-02-14T15:29:26.476Z,19.38
2023-02-14T15:31:54.705Z,18.13
2023-02-14T15:34:33.060Z,22.92
2023-02-14T15:37:06.124Z,24.98
2023-02-14T15:39:40.734Z,24.55
2023-02-14T15:42:27.779Z,21.45
2023-02-14T15:45:28.976Z,22.17
2023-02-14T15:47:57.110Z,23.20
2023-02-14T15:50:48.898Z,19.77
2023-02-14T15:53:47.821Z,23.65
2023-02-14T15:56:31.332Z,27.75
2023-02-14T15:59:17.341Z,19.83
2023-02-14T16:01:59.362Z,21.13
2023-02-14T16:04:28.975Z,23.25
2023-02-14T16:07:23.936Z,29.35
2023-02-14T16:10:11.865Z,26.40
2023-02-14T16:12:40.640Z,25.38
2023-02-14T16:15:20.244Z,24.48
2023-02-14T16:17:48.125Z,26.30
2023-02-14T16:20:34.244Z,22.20
2023-02-14T16:23:16.182Z,25.45
2023-02-14T16:25:43.771Z,24.08
2023-02-14T16:28:11.006Z,25.77
2023-02-14T16:30:39.422Z,19.88
2023-02-14T16:33:13.059Z,21.55
2023-02-14T16:35:40.043Z,26.27
2023-02-14T16:38:12.818Z,20.10
2023-02-14T16:40:43.834Z,26.20
2023-02-14T16:43:14.948Z,23.02
2023-02-14T16:45:42.912Z,16.80
2023-02-14T16:48:10.496Z,17.55
2023-02-14T16:50:39.690Z,19.90
2023-02-14T16:53:12.906Z,19.42
2023-02-14T16:55:40.519Z,23.50
2023-02-14T16:58:08.061Z,21.85
2023-02-14T17:00:34.897Z,17.35
2023-02-14T17:03:07.976Z,16.25
2023-02-14T17:05:36.032Z,14.50
2023-02-14T17:08:04.659Z,16.67
2023-02-14T17:10:33.544Z,12.55
2023-02-14T17:13:03.520Z,14.85
2023-02-14T17:15:31.389Z,13.60
2023-02-14T17:18:09.679Z,17.38
2023-02-14T17:20:36.637Z,14.27
2023-02-14T17:23:03.700Z,19.77
2023-02-14T17:25:30.763Z,18.30
2023-02-14T17:27:57.982Z,16.08
2023-02-14T17:30:24.902Z,18.17
2023-02-14T17:32:52.010Z,20.13
2023-02-14T17:35:19.437Z,18.73
2023-02-14T17:37:46.570Z,19.00
2023-02-14T17:40:15.030Z,19.70
2023-02-14T17:42:42.607Z,19.70
2023-02-14T17:45:11.825Z,20.10
2023-02-14T17:47:43.159Z,21.30
2023-02-14T17:50:11.378Z,18.58
2023-02-14T17:52:38.974Z,17.58
2023-02-14T17:55:06.860Z,19.63
2023-02-14T17:57:33.960Z,24.65
2023-02-14T18:00:01.912Z,23.15
2023-02-14T18:02:29.122Z,26.00
2023-02-14T18:04:57.701Z,24.33
2023-02-14T18:07:25.153Z,25.35
2023-02-14T18:09:51.999Z,22.80
2023-02-14T18:12:19.135Z,22.52
2023-02-14T18:14:45.920Z,24.85
2023-02-14T18:17:13.692Z,25.25
2023-02-14T18:19:40.600Z,26.65
2023-02-14T18:22:07.690Z,24.48
2023-02-14T18:24:34.996Z,29.33
2023-02-14T18:27:02.928Z,31.55
2023-02-14T18:29:29.840Z,24.85
2023-02-14T18:31:56.993Z,24.38
2023-02-14T18:34:24.047Z,24.33
2023-02-14T18:36:51.254Z,24.33
2023-02-14T18:39:19.976Z,22.75
2023-02-14T18:41:47.018Z,25.58
2023-02-14T18:44:13.802Z,22.35
2023-02-14T18:46:41.012Z,26.65
2023-02-14T18:49:08.649Z,24.95
2023-02-14T18:51:39.379Z,24.58
2023-02-14T18:54:07.220Z,23.13
2023-02-14T18:56:37.046Z,22.30
2023-02-14T18:59:07.147Z,26.63
2023-02-14T19:01:37.587Z,25.83
2023-02-14T19:04:07.956Z,27.65
2023-02-14T19:06:36.170Z,30.42
2023-02-14T19:09:07.385Z,30.95
2023-02-14T19:11:34.559Z,25.67
2023-02-14T19:14:02.875Z,28.10
2023-02-14T19:16:33.377Z,26.27
2023-02-14T19:19:02.506Z,26.83
2023-02-14T19:21:33.617Z,26.13
2023-02-14T19:24:02.225Z,31.98
2023-02-14T19:26:35.005Z,30.40
2023-02-14T19:29:04.768Z,27.95
2023-02-14T19:31:36.529Z,30.20
2023-02-14T19:34:05.179Z,31.92
2023-02-14T19:36:33.682Z,30.98
2023-02-14T19:39:00.547Z,30.17
2023-02-14T19:41:31.680Z,33.35
2023-02-14T19:43:59.093Z,28.27
2023-02-14T19:46:28.241Z,37.58
2023-02-14T19:48:56.804Z,33.47
2023-02-14T19:51:30.693Z,24.65
2023-02-14T19:53:59.610Z,28.88
2023-02-14T19:56:29.755Z,42.25
2023-02-14T19:58:57.074Z,28.48
2023-02-14T20:01:29.990Z,35.10
2023-02-14T20:03:57.201Z,34.05
2023-02-14T20:06:26.483Z,29.50
2023-02-14T20:08:53.749Z,30.05
2023-02-14T20:11:39.043Z,40.55
2023-02-14T20:14:08.658Z,31.00
2023-02-14T20:16:37.048Z,27.92
2023-02-14T20:19:13.278Z,28.95
2023-02-14T20:21:42.042Z,23.30
2023-02-14T20:24:10.574Z,29.08
2023-02-14T20:26:41.586Z,29.17
2023-02-14T20:29:10.333Z,31.08
2023-02-14T20:31:42.179Z,34.85
2023-02-14T20:34:09.875Z,33.38
2023-02-14T20:36:38.127Z,32.92
2023-02-14T20:39:07.206Z,27.45
2023-02-14T20:41:34.873Z,30.95
2023-02-14T20:44:07.433Z,28.77
2023-02-14T20:46:35.473Z,31.17
2023-02-14T20:49:02.988Z,30.55
2023-02-14T20:51:30.185Z,29.30
2023-02-14T20:53:57.248Z,28.67
2023-02-14T20:56:24.537Z,33.17
2023-02-14T20:58:51.685Z,29.27
2023-02-14T21:01:24.611Z,28.13
2023-02-14T21:03:53.457Z,33.58
2023-02-14T21:06:23.278Z,32.22
2023-02-14T21:08:50.472Z,27.55
2023-02-14T21:11:19.793Z,32.50
2023-02-14T21:13:47.085Z,33.22
2023-02-14T21:16:19.740Z,25.00
2023-02-14T21:18:51.721Z,27.77
2023-02-14T21:21:22.411Z,26.85
2023-02-14T21:23:51.086Z,29.88
2023-02-14T21:26:18.720Z,28.88
2023-02-14T21:28:46.263Z,33.22
2023-02-14T21:31:15.348Z,34.88
2023-02-14T21:33:42.191Z,28.27
2023-02-14T21:36:14.865Z,34.58
2023-02-14T21:38:41.765Z,28.58
2023-02-14T21:41:11.763Z,27.30
2023-02-14T21:43:41.969Z,31.55
2023-02-14T21:46:11.720Z,26.67
2023-02-14T21:48:57.353Z,32.30
2023-02-14T21:51:25.179Z,30.73
2023-02-14T21:53:52.516Z,32.60
2023-02-14T21:56:20.459Z,29.08
2023-02-14T21:58:48.799Z,33.00
2023-02-14T22:01:21.386Z,32.80
2023-02-14T22:03:48.560Z,32.90
2023-02-14T22:06:16.181Z,31.00
2023-02-14T22:08:43.744Z,34.42
2023-02-14T22:11:13.826Z,37.10
2023-02-14T22:13:41.232Z,34.45
2023-02-14T22:16:14.212Z,32.65
2023-02-14T22:18:43.365Z,34.63
2023-02-14T22:21:13.993Z,35.65
2023-02-14T22:23:41.103Z,33.10
2023-02-14T22:26:10.368Z,36.45
2023-02-14T22:28:37.198Z,31.15
2023-02-14T22:31:04.760Z,34.58
2023-02-14T22:33:31.789Z,26.75
2023-02-14T22:36:00.121Z,38.13
2023-02-14T22:38:27.713Z,34.40
2023-02-14T22:40:55.218Z,34.03
2023-02-14T22:43:22.828Z,35.33
2023-02-14T22:45:50.043Z,32.13
2023-02-14T22:48:17.848Z,34.10
2023-02-14T22:50:44.995Z,33.53
2023-02-14T22:53:11.933Z,32.10
2023-02-14T22:55:39.853Z,36.50
2023-02-14T22:58:06.731Z,26.25
2023-02-14T23:00:33.848Z,39.13
2023-02-14T23:03:00.693Z,31.15
2023-02-14T23:05:27.840Z,34.10
2023-02-14T23:07:54.646Z,36.25
2023-02-14T23:10:21.743Z,38.20
2023-02-14T23:13:06.970Z,40.25
2023-02-14T23:15:52.995Z,38.22
2023-02-14T23:18:38.479Z,36.85
2023-02-14T23:21:31.999Z,34.53
2023-02-14T23:23:58.789Z,40.72
2023-02-14T23:26:25.843Z,35.65
2023-02-14T23:28:52.632Z,38.75
2023-02-14T23:31:19.817Z,33.80
2023-02-14T23:33:50.892Z,36.95
2023-02-14T23:36:18.272Z,45.53
2023-02-14T23:38:45.085Z,40.15
2023-02-14T23:41:30.910Z,40.88
2023-02-14T23:43:57.789Z,40.60
2023-02-14T23:46:24.926Z,41.28
2023-02-14T23:48:51.832Z,41.55
2023-02-14T23:51:18.938Z,36.70
2023-02-14T23:53:45.875Z,38.30
2023-02-14T23:56:12.950Z,36.13
2023-02-14T23:58:40.999Z,44.63
